Time;durP1;ratioP1;P1;durP2;ratioP2;P2;SDS_P1;SDS_P2;PMS_P1;PMS_P2;Temp;Humidity;BMP_temperature;BMP_pressure;BME280_temperature;BME280_humidity;BME280_pressure;Samples;Min_cycle;Max_cycle;Signal;HPM_P1;HPM_P2
2022/02/20 00:01:19;;;;;;;1.50;1.27;;;;;;;-145.14;100.00;70583.66;5015629;28;20559;-71
2022/02/20 00:03:44;;;;;;;1.70;1.60;;;;;;;-145.14;100.00;70583.66;5013467;28;20262;-71
2022/02/20 00:06:10;;;;;;;2.45;1.40;;;;;;;-145.14;100.00;70583.66;5014462;28;20213;-72
2022/02/20 00:08:35;;;;;;;1.40;1.30;;;;;;;-145.14;100.00;70583.66;5014356;28;20221;-71
2022/02/20 00:11:02;;;;;;;2.73;1.40;;;;;;;-145.14;100.00;70583.66;5015956;28;20232;-71
2022/02/20 00:13:27;;;;;;;1.93;1.20;;;;;;;-145.14;100.00;70583.66;5016594;28;20379;-71
2022/02/20 00:15:53;;;;;;;1.73;1.63;;;;;;;-145.14;100.00;70583.66;5014235;28;20552;-71
2022/02/20 00:18:18;;;;;;;3.63;1.40;;;;;;;-145.14;100.00;70583.66;5013773;28;20200;-71
2022/02/20 00:20:45;;;;;;;1.47;1.33;;;;;;;-145.14;100.00;70583.66;5015146;28;21917;-71
2022/02/20 00:23:12;;;;;;;1.53;1.30;;;;;;;-145.14;100.00;70583.66;5017534;28;20208;-71
2022/02/20 00:25:38;;;;;;;1.50;1.40;;;;;;;-145.14;100.00;70583.66;5003323;28;20558;-71
2022/02/20 00:28:05;;;;;;;3.17;1.57;;;;;;;-145.14;100.00;70583.66;5016257;28;20431;-71
2022/02/20 00:30:31;;;;;;;1.37;1.27;;;;;;;-145.14;100.00;70583.66;5018365;28;20447;-72
2022/02/20 00:32:58;;;;;;;1.67;1.50;;;;;;;-145.14;100.00;70583.66;5016096;28;21002;-71
2022/02/20 00:35:28;;;;;;;1.53;1.20;;;;;;;-145.14;100.00;70583.66;5015868;28;20204;-71
2022/02/20 00:37:54;;;;;;;1.63;1.53;;;;;;;-145.14;100.00;70583.66;5017281;28;20548;-71
2022/02/20 00:40:19;;;;;;;1.30;1.20;;;;;;;-145.14;100.00;70583.66;5015421;28;20939;-72
2022/02/20 00:42:45;;;;;;;1.77;1.30;;;;;;;-145.14;100.00;70583.66;5014391;28;20478;-71
2022/02/20 00:45:10;;;;;;;1.80;1.27;;;;;;;-145.14;100.00;70583.66;5016439;28;20700;-71
2022/02/20 00:47:36;;;;;;;1.50;1.40;;;;;;;-145.14;100.00;70583.66;5018400;28;20188;-73
2022/02/20 00:50:01;;;;;;;1.80;1.70;;;;;;;-145.14;100.00;70583.66;5020151;28;20180;-72
2022/02/20 00:52:27;;;;;;;1.63;1.53;;;;;;;-145.14;100.00;70583.66;5017637;28;20188;-71
2022/02/20 00:54:52;;;;;;;2.30;1.63;;;;;;;-145.14;100.00;70583.66;5003018;28;20204;-71
2022/02/20 00:57:20;;;;;;;3.70;2.13;;;;;;;-145.14;100.00;70583.66;5016425;28;20200;-71
2022/02/20 00:59:45;;;;;;;1.73;1.63;;;;;;;-145.14;100.00;70583.66;5021265;28;20188;-71
2022/02/20 01:02:11;;;;;;;1.73;1.63;;;;;;;-145.14;100.00;70583.66;5017693;28;21161;-71
2022/02/20 01:04:36;;;;;;;2.30;1.73;;;;;;;-145.14;100.00;70583.66;5017111;28;20242;-71
2022/02/20 01:07:02;;;;;;;1.93;1.77;;;;;;;-145.14;100.00;70583.66;5014606;28;20288;-71
2022/02/20 01:09:27;;;;;;;4.23;2.30;;;;;;;-145.14;100.00;70583.66;5018674;28;20538;-71
2022/02/20 01:11:53;;;;;;;1.70;1.60;;;;;;;-145.14;100.00;70583.66;5019695;28;20439;-71
2022/02/20 01:14:18;;;;;;;1.70;1.60;;;;;;;-145.14;100.00;70583.66;5015427;28;20230;-72
2022/02/20 01:16:44;;;;;;;1.90;1.80;;;;;;;-145.14;100.00;70583.66;5016929;28;20278;-71
2022/02/20 01:19:10;;;;;;;2.03;1.83;;;;;;;-145.14;100.00;70583.66;5015582;28;20189;-71
2022/02/20 01:21:35;;;;;;;2.50;2.13;;;;;;;-145.14;100.00;70583.66;5017343;28;20263;-72
2022/02/20 01:24:01;;;;;;;1.80;1.70;;;;;;;-145.14;100.00;70583.66;5016437;28;20180;-71
2022/02/20 01:26:26;;;;;;;2.20;2.10;;;;;;;-145.14;100.00;70583.66;5008208;23;20237;-75
2022/02/20 01:28:52;;;;;;;2.40;2.20;;;;;;;-145.14;100.00;70583.66;4995391;28;20257;-75
2022/02/20 01:31:17;;;;;;;2.70;1.70;;;;;;;-145.14;100.00;70583.66;4996390;28;20185;-75
2022/02/20 01:33:43;;;;;;;1.90;1.80;;;;;;;-145.14;100.00;70583.66;5011974;28;20189;-76
2022/02/20 01:36:08;;;;;;;2.70;2.37;;;;;;;-145.14;100.00;70583.66;4999159;28;20554;-75
2022/02/20 01:38:34;;;;;;;1.97;1.87;;;;;;;-145.14;100.00;70583.66;4997527;28;20195;-75
2022/02/20 01:40:59;;;;;;;1.87;1.60;;;;;;;-145.14;100.00;70583.66;4999298;28;20181;-75
2022/02/20 01:43:25;;;;;;;2.23;1.70;;;;;;;-145.14;100.00;70583.66;5000317;28;20406;-75
2022/02/20 01:45:51;;;;;;;1.77;1.60;;;;;;;-145.14;100.00;70583.66;4997889;28;20314;-75
2022/02/20 01:48:17;;;;;;;2.10;1.90;;;;;;;-145.14;100.00;70583.66;5001971;28;20189;-75
2022/02/20 01:50:42;;;;;;;1.93;1.47;;;;;;;-145.14;100.00;70583.66;4999055;28;20646;-76
2022/02/20 01:53:09;;;;;;;1.77;1.60;;;;;;;-145.14;100.00;70583.66;5002262;28;20439;-75
2022/02/20 01:55:36;;;;;;;1.20;1.20;;;;;;;-145.14;100.00;70583.66;4997795;28;20271;-76
2022/02/20 01:58:01;;;;;;;2.03;1.93;;;;;;;-145.14;100.00;70583.66;4999063;28;20421;-76
2022/02/20 02:00:29;;;;;;;2.57;1.50;;;;;;;-145.14;100.00;70583.66;5000536;28;20948;-76
2022/02/20 02:02:55;;;;;;;1.97;1.87;;;;;;;-145.14;100.00;70583.66;5001028;28;20652;-76
2022/02/20 02:05:20;;;;;;;2.10;1.90;;;;;;;-145.14;100.00;70583.66;4994835;28;20483;-77
2022/02/20 02:07:46;;;;;;;2.80;1.80;;;;;;;-145.14;100.00;70583.66;5002628;28;20450;-76
2022/02/20 02:10:11;;;;;;;1.73;1.63;;;;;;;-145.14;100.00;70583.66;4999810;28;20295;-75
2022/02/20 02:12:39;;;;;;;2.20;2.00;;;;;;;-145.14;100.00;70583.66;4999618;28;20312;-76
2022/02/20 02:15:10;;;;;;;2.77;1.90;;;;;;;-145.14;100.00;70583.66;5002239;28;20676;-77
2022/02/20 02:17:36;;;;;;;1.63;1.53;;;;;;;-145.14;100.00;70583.66;5002041;28;20456;-76
2022/02/20 02:20:05;;;;;;;2.17;2.07;;;;;;;-145.14;100.00;70583.66;5002363;28;20546;-75
2022/02/20 02:22:31;;;;;;;1.67;1.57;;;;;;;-145.14;100.00;70583.66;5001742;28;20519;-76
2022/02/20 02:25:01;;;;;;;2.07;1.80;;;;;;;-145.14;100.00;70583.66;4998048;28;20486;-76
2022/02/20 02:27:27;;;;;;;2.00;1.80;;;;;;;-145.14;100.00;70583.66;5000151;28;20251;-77
2022/02/20 02:29:54;;;;;;;3.47;1.57;;;;;;;-145.14;100.00;70583.66;5001961;28;20587;-78
2022/02/20 02:32:21;;;;;;;3.37;1.80;;;;;;;-145.14;100.00;70583.66;4998371;28;20526;-77
2022/02/20 02:34:47;;;;;;;2.80;1.40;;;;;;;-145.14;100.00;70583.66;5000084;28;20613;-79
2022/02/20 02:37:13;;;;;;;3.00;1.70;;;;;;;-145.14;100.00;70583.66;4998187;28;20466;-79
2022/02/20 02:39:39;;;;;;;2.40;1.60;;;;;;;-145.14;100.00;70583.66;4997759;28;20444;-78
2022/02/20 02:42:06;;;;;;;1.50;1.40;;;;;;;-145.14;100.00;70583.66;4999245;28;20526;-78
2022/02/20 02:44:32;;;;;;;2.23;1.50;;;;;;;-145.14;100.00;70583.66;4998461;28;20473;-77
2022/02/20 02:46:57;;;;;;;3.50;1.43;;;;;;;-145.14;100.00;70583.66;4998846;28;20467;-77
2022/02/20 02:49:23;;;;;;;1.37;1.27;;;;;;;-145.14;100.00;70583.66;4996233;28;20729;-78
2022/02/20 02:51:49;;;;;;;3.40;1.03;;;;;;;-145.14;100.00;70583.66;5013643;28;20193;-78
2022/02/20 02:54:17;;;;;;;2.00;1.43;;;;;;;-145.14;100.00;70583.66;4995871;28;20188;-77
2022/02/20 02:56:47;;;;;;;2.03;1.23;;;;;;;-145.14;100.00;70583.66;4999255;28;20276;-78
2022/02/20 02:59:13;;;;;;;1.50;1.20;;;;;;;-145.14;100.00;70583.66;4998198;28;20440;-78
2022/02/20 03:01:39;;;;;;;1.30;1.20;;;;;;;-145.14;100.00;70583.66;4998274;28;20451;-77
2022/02/20 03:04:05;;;;;;;1.47;1.37;;;;;;;-145.14;100.00;70583.66;4994883;28;20448;-77
2022/02/20 03:06:30;;;;;;;6.10;1.30;;;;;;;-145.14;100.00;70583.66;5000320;28;20614;-78
2022/02/20 03:08:56;;;;;;;1.47;1.37;;;;;;;-145.14;100.00;70583.66;5000997;28;20192;-78
2022/02/20 03:11:22;;;;;;;2.00;1.23;;;;;;;-145.14;100.00;70583.66;5000504;28;20688;-78
2022/02/20 03:13:47;;;;;;;1.97;1.50;;;;;;;-145.14;100.00;70583.66;4998947;28;20636;-78
2022/02/20 03:16:13;;;;;;;2.30;1.50;;;;;;;-145.14;100.00;70583.66;4998727;28;20205;-78
2022/02/20 03:18:39;;;;;;;3.60;1.60;;;;;;;-145.14;100.00;70583.66;4999330;28;20189;-78
2022/02/20 03:21:06;;;;;;;2.10;1.60;;;;;;;-145.14;100.00;70583.66;5004466;28;20280;-77
2022/02/20 03:23:32;;;;;;;1.70;1.60;;;;;;;-145.14;100.00;70583.66;4997657;28;20949;-77
2022/02/20 03:25:57;;;;;;;1.80;1.50;;;;;;;-145.14;100.00;70583.66;4998990;28;20486;-78
2022/02/20 03:28:23;;;;;;;1.40;1.30;;;;;;;-145.14;100.00;70583.66;5000582;28;20443;-78
2022/02/20 03:30:49;;;;;;;1.20;1.20;;;;;;;-145.14;100.00;70583.66;4997792;28;20197;-78
2022/02/20 03:33:15;;;;;;;2.23;1.40;;;;;;;-145.14;100.00;70583.66;4993343;28;20181;-78
2022/02/20 03:35:41;;;;;;;4.10;1.50;;;;;;;-145.14;100.00;70583.66;4999236;28;20460;-78
2022/02/20 03:38:07;;;;;;;3.40;1.30;;;;;;;-145.14;100.00;70583.66;5000951;28;20856;-78
2022/02/20 03:40:32;;;;;;;1.77;1.07;;;;;;;-145.14;100.00;70583.66;4998503;28;20463;-77
2022/02/20 03:42:59;;;;;;;1.50;1.20;;;;;;;-145.14;100.00;70583.66;4998587;28;20193;-78
2022/02/20 03:45:28;;;;;;;1.20;1.10;;;;;;;-145.14;100.00;70583.66;4991083;28;20221;-77
2022/02/20 03:47:54;;;;;;;1.97;1.20;;;;;;;-145.14;100.00;70583.66;4999505;28;20539;-77
2022/02/20 03:50:20;;;;;;;1.60;1.40;;;;;;;-145.14;100.00;70583.66;5000654;28;20882;-77
2022/02/20 03:52:46;;;;;;;3.30;1.20;;;;;;;-145.14;100.00;70583.66;4994799;28;20478;-75
2022/02/20 03:55:11;;;;;;;5.30;1.20;;;;;;;-145.14;100.00;70583.66;5003029;28;20205;-76
2022/02/20 03:57:37;;;;;;;1.30;1.20;;;;;;;-145.14;100.00;70583.66;5003994;28;20835;-77
2022/02/20 04:00:10;;;;;;;1.10;1.10;;;;;;;-145.14;100.00;70583.66;5000384;28;20452;-76
2022/02/20 04:02:39;;;;;;;1.20;1.10;;;;;;;-145.14;100.00;70583.66;5004214;28;20519;-78
2022/02/20 04:05:09;;;;;;;1.30;1.20;;;;;;;-145.14;100.00;70583.66;5002027;28;20475;-77
2022/02/20 04:07:35;;;;;;;3.27;1.10;;;;;;;-145.14;100.00;70583.66;5005408;28;21010;-77
2022/02/20 04:10:05;;;;;;;4.23;1.30;;;;;;;-145.14;100.00;70583.66;5004260;28;20530;-77
2022/02/20 04:12:31;;;;;;;3.57;1.77;;;;;;;-145.14;100.00;70583.66;5002909;28;20248;-77
2022/02/20 04:14:57;;;;;;;3.30;1.97;;;;;;;-145.14;100.00;70583.66;5004522;28;20464;-77
2022/02/20 04:17:24;;;;;;;3.00;2.00;;;;;;;-145.14;100.00;70583.66;5001382;28;20184;-79
2022/02/20 04:19:51;;;;;;;2.57;1.80;;;;;;;-145.14;100.00;70583.66;5002582;28;20439;-76
2022/02/20 04:22:17;;;;;;;2.40;2.10;;;;;;;-145.14;100.00;70583.66;5001976;28;20452;-77
2022/02/20 04:24:42;;;;;;;3.23;2.03;;;;;;;-145.14;100.00;70583.66;5001376;28;20464;-79
2022/02/20 04:27:08;;;;;;;2.23;2.00;;;;;;;-145.14;100.00;70583.66;5002990;28;20857;-76
2022/02/20 04:29:33;;;;;;;2.10;1.83;;;;;;;-145.14;100.00;70583.66;5002357;28;20188;-77
2022/02/20 04:32:00;;;;;;;2.43;2.10;;;;;;;-145.14;100.00;70583.66;5004951;28;20189;-79
2022/02/20 04:34:25;;;;;;;2.90;2.03;;;;;;;-145.14;100.00;70583.66;4999523;28;20673;-78
2022/02/20 04:36:51;;;;;;;1.93;1.83;;;;;;;-145.14;100.00;70583.66;4996534;28;20510;-77
2022/02/20 04:39:17;;;;;;;3.10;2.60;;;;;;;-145.14;100.00;70583.66;5003213;28;20681;-79
2022/02/20 04:41:42;;;;;;;2.80;2.60;;;;;;;-145.14;100.00;70583.66;4998950;28;20714;-77
2022/02/20 04:44:08;;;;;;;2.43;2.27;;;;;;;-145.14;100.00;70583.66;5002990;28;20220;-79
2022/02/20 04:46:35;;;;;;;2.87;2.67;;;;;;;-145.14;100.00;70583.66;5001053;28;20205;-79
2022/02/20 04:49:02;;;;;;;2.97;2.77;;;;;;;-145.14;100.00;70583.66;5001634;28;20193;-79
2022/02/20 04:51:28;;;;;;;2.83;2.63;;;;;;;-145.14;100.00;70583.66;5001363;28;20444;-76
2022/02/20 04:53:53;;;;;;;2.73;2.20;;;;;;;-145.14;100.00;70583.66;5000836;28;20510;-79
2022/02/20 04:56:19;;;;;;;2.87;2.67;;;;;;;-145.14;100.00;70583.66;5000319;28;20207;-79
2022/02/20 04:58:44;;;;;;;4.50;3.03;;;;;;;-145.14;100.00;70583.66;5001559;28;20745;-77
2022/02/20 05:01:10;;;;;;;3.07;2.80;;;;;;;-145.14;100.00;70583.66;4994064;28;20188;-77
2022/02/20 05:03:35;;;;;;;3.63;2.90;;;;;;;-145.14;100.00;70583.66;4999929;28;20189;-78
2022/02/20 05:06:01;;;;;;;5.80;2.90;;;;;;;-145.14;100.00;70583.66;4997188;28;20316;-77
2022/02/20 05:08:26;;;;;;;3.93;2.80;;;;;;;-145.14;100.00;70583.66;5002678;28;20662;-77
2022/02/20 05:10:52;;;;;;;3.80;2.60;;;;;;;-145.14;100.00;70583.66;4996274;28;20189;-77
2022/02/20 05:13:17;;;;;;;3.63;2.80;;;;;;;-145.14;100.00;70583.66;5003117;28;20189;-77
2022/02/20 05:15:43;;;;;;;3.40;2.37;;;;;;;-145.14;100.00;70583.66;4999388;28;20595;-79
2022/02/20 05:18:08;;;;;;;2.83;2.63;;;;;;;-145.14;100.00;70583.66;5000552;28;20181;-79
2022/02/20 05:20:34;;;;;;;5.00;2.80;;;;;;;-145.14;100.00;70583.66;4999409;28;20181;-80
2022/02/20 05:22:59;;;;;;;3.27;2.97;;;;;;;-145.14;100.00;70583.66;5002616;28;20192;-80
2022/02/20 05:25:24;;;;;;;2.60;2.40;;;;;;;-145.14;100.00;70583.66;4996340;28;20207;-77
2022/02/20 05:27:50;;;;;;;3.90;2.20;;;;;;;-145.14;100.00;70583.66;5003488;28;20185;-77
2022/02/20 05:30:19;;;;;;;7.30;2.10;;;;;;;-145.14;100.00;70583.66;4996830;28;20820;-80
2022/02/20 05:32:45;;;;;;;4.60;3.03;;;;;;;-145.14;100.00;70583.66;5000563;28;20187;-78
2022/02/20 05:35:12;;;;;;;4.23;3.30;;;;;;;-145.14;100.00;70583.66;4995248;28;20457;-78
2022/02/20 05:37:49;;;;;;;5.20;4.63;;;;;;;-145.14;100.00;70583.66;5002157;28;20444;-78
2022/02/20 05:40:17;;;;;;;7.70;6.97;;;;;;;-145.14;100.00;70583.66;5001355;28;20968;-78
2022/02/20 05:42:43;;;;;;;9.10;8.30;;;;;;;-145.14;100.00;70583.66;5000042;28;20432;-78
2022/02/20 05:45:09;;;;;;;11.60;9.10;;;;;;;-145.14;100.00;70583.66;4999821;28;20468;-78
2022/02/20 05:47:35;;;;;;;10.07;6.90;;;;;;;-145.14;100.00;70583.66;5001667;28;20451;-77
2022/02/20 05:50:02;;;;;;;7.43;4.10;;;;;;;-145.14;100.00;70583.66;4999396;28;20932;-79
2022/02/20 05:52:27;;;;;;;6.10;4.30;;;;;;;-145.14;100.00;70583.66;4999226;28;20247;-80
2022/02/20 05:54:52;;;;;;;5.27;3.80;;;;;;;-145.14;100.00;70583.66;4995386;28;21055;-78
2022/02/20 05:57:18;;;;;;;5.43;3.90;;;;;;;-145.14;100.00;70583.66;5002003;28;20665;-78
2022/02/20 05:59:44;;;;;;;7.60;3.70;;;;;;;-145.14;100.00;70583.66;5000387;28;20192;-76
2022/02/20 06:02:11;;;;;;;4.13;3.70;;;;;;;-145.14;100.00;70583.66;5002817;28;20804;-75
2022/02/20 06:04:36;;;;;;;3.57;3.00;;;;;;;-145.14;100.00;70583.66;4999215;28;20200;-78
2022/02/20 06:07:03;;;;;;;4.20;3.17;;;;;;;-145.14;100.00;70583.66;4999711;28;20463;-76
2022/02/20 06:09:29;;;;;;;12.10;3.57;;;;;;;-145.14;100.00;70583.66;5002586;28;20660;-75
2022/02/20 06:11:55;;;;;;;7.40;3.30;;;;;;;-145.14;100.00;70583.66;5002271;28;20531;-75
2022/02/20 06:14:21;;;;;;;3.40;3.10;;;;;;;-145.14;100.00;70583.66;4997774;28;20431;-75
2022/02/20 06:16:46;;;;;;;2.80;2.60;;;;;;;-145.14;100.00;70583.66;4994512;28;20235;-75
2022/02/20 06:19:11;;;;;;;2.60;2.40;;;;;;;-145.14;100.00;70583.66;4999011;28;20205;-75
2022/02/20 06:21:37;;;;;;;3.40;2.60;;;;;;;-145.14;100.00;70583.66;4997624;28;20536;-74
2022/02/20 06:24:02;;;;;;;7.37;3.27;;;;;;;-145.14;100.00;70583.66;4997909;28;20212;-76
2022/02/20 06:26:28;;;;;;;2.67;2.43;;;;;;;-145.14;100.00;70583.66;4997332;28;20283;-75
2022/02/20 06:28:53;;;;;;;4.70;2.73;;;;;;;-145.14;100.00;70583.66;4997014;28;20185;-79
2022/02/20 06:31:19;;;;;;;2.93;2.60;;;;;;;-145.14;100.00;70583.66;4998881;28;20264;-80
2022/02/20 06:33:47;;;;;;;6.67;2.93;;;;;;;-145.14;100.00;70583.66;4996397;28;20247;-80
2022/02/20 06:36:12;;;;;;;5.47;2.90;;;;;;;-145.14;100.00;70583.66;4997410;28;20201;-78
2022/02/20 06:38:38;;;;;;;3.57;3.00;;;;;;;-145.14;100.00;70583.66;5000253;28;20541;-80
2022/02/20 06:41:04;;;;;;;6.63;3.27;;;;;;;-145.14;100.00;70583.66;5000523;28;20199;-81
2022/02/20 06:43:29;;;;;;;8.50;3.07;;;;;;;-145.14;100.00;70583.66;4998806;28;20199;-82
2022/02/20 06:45:55;;;;;;;2.97;2.63;;;;;;;-145.14;100.00;70583.66;4996964;28;20315;-81
2022/02/20 06:48:20;;;;;;;4.10;3.00;;;;;;;-145.14;100.00;70583.66;4998299;28;20195;-83
2022/02/20 06:50:46;;;;;;;11.47;4.13;;;;;;;-145.14;100.00;70583.66;4996170;28;20193;-83
2022/02/20 06:53:11;;;;;;;3.83;3.20;;;;;;;-145.14;100.00;70583.66;4997229;28;20216;-81
2022/02/20 06:55:37;;;;;;;4.00;3.60;;;;;;;-145.14;100.00;70583.66;4999444;28;20208;-82
2022/02/20 06:58:02;;;;;;;4.13;3.80;;;;;;;-145.14;100.00;70583.66;4994189;28;20554;-82
2022/02/20 07:00:28;;;;;;;6.43;5.40;;;;;;;-145.14;100.00;70583.66;5008839;28;20219;-83
2022/02/20 07:02:54;;;;;;;9.03;4.27;;;;;;;-145.14;100.00;70583.66;4991331;28;20193;-85
2022/02/20 07:05:20;;;;;;;5.73;3.50;;;;;;;-145.14;100.00;70583.66;4989598;28;23512;-83
2022/02/20 07:07:45;;;;;;;4.97;3.40;;;;;;;-145.14;100.00;70583.66;5002377;28;20189;-84
2022/02/20 07:10:11;;;;;;;6.53;3.53;;;;;;;-145.14;100.00;70583.66;4999160;28;20188;-82
2022/02/20 07:12:37;;;;;;;6.27;3.53;;;;;;;-145.14;100.00;70583.66;5001916;28;20283;-83
2022/02/20 07:15:04;;;;;;;7.10;3.80;;;;;;;-145.14;100.00;70583.66;5000304;28;20235;-83
2022/02/20 07:17:29;;;;;;;9.20;4.70;;;;;;;-145.14;100.00;70583.66;4999987;28;20440;-83
2022/02/20 07:19:55;;;;;;;5.73;3.70;;;;;;;-145.14;100.00;70583.66;5003202;28;20459;-82
2022/02/20 07:22:21;;;;;;;5.00;3.37;;;;;;;-145.14;100.00;70583.66;5004586;28;20512;-81
2022/02/20 07:24:46;;;;;;;12.60;4.67;;;;;;;-145.14;100.00;70583.66;5002306;28;20211;-83
2022/02/20 07:27:11;;;;;;;5.50;3.97;;;;;;;-145.14;100.00;70583.66;5012574;23;20717;-73
2022/02/20 07:29:37;;;;;;;6.23;4.30;;;;;;;-145.14;100.00;70583.66;5003873;28;20691;-73
2022/02/20 07:32:03;;;;;;;6.00;3.57;;;;;;;-145.14;100.00;70583.66;5004408;28;20185;-73
2022/02/20 07:34:28;;;;;;;4.00;2.83;;;;;;;-145.14;100.00;70583.66;5003789;28;20264;-73
2022/02/20 07:36:54;;;;;;;6.23;3.90;;;;;;;-145.14;100.00;70583.66;5003084;28;20459;-73
2022/02/20 07:39:20;;;;;;;4.70;3.30;;;;;;;-145.14;100.00;70583.66;5007396;28;20193;-73
2022/02/20 07:41:46;;;;;;;5.80;3.60;;;;;;;-145.14;100.00;70583.66;5005323;28;20177;-73
2022/02/20 07:44:11;;;;;;;4.10;2.90;;;;;;;-145.14;100.00;70583.66;5003746;28;20482;-73
2022/02/20 07:46:36;;;;;;;5.80;3.20;;;;;;;-145.14;100.00;70583.66;5007326;28;21639;-73
2022/02/20 07:49:03;;;;;;;6.30;3.07;;;;;;;-145.14;100.00;70583.66;5001930;28;20263;-71
2022/02/20 07:51:29;;;;;;;4.00;3.20;;;;;;;-145.14;100.00;70583.66;4995301;28;20188;-73
2022/02/20 07:53:55;;;;;;;4.13;2.80;;;;;;;-145.14;100.00;70583.66;5000886;28;20461;-70
2022/02/20 07:56:20;;;;;;;6.00;3.60;;;;;;;-145.14;100.00;70583.66;5000339;28;20273;-73
2022/02/20 07:58:49;;;;;;;6.63;3.40;;;;;;;-145.14;100.00;70583.66;5005082;28;20431;-73
2022/02/20 08:01:15;;;;;;;4.07;2.70;;;;;;;-145.14;100.00;70583.66;5007324;28;20184;-73
2022/02/20 08:03:40;;;;;;;6.23;3.50;;;;;;;-145.14;100.00;70583.66;5002820;28;20443;-73
2022/02/20 08:06:06;;;;;;;5.90;3.95;;;;;;;-145.14;100.00;70583.66;5001133;28;20502;-73
2022/02/20 08:08:33;;;;;;;6.40;3.20;;;;;;;-145.14;100.00;70583.66;4998109;28;20566;-73
2022/02/20 08:11:00;;;;;;;5.27;2.90;;;;;;;-145.14;100.00;70583.66;5004981;28;20214;-73
2022/02/20 08:13:26;;;;;;;4.50;2.83;;;;;;;-145.14;100.00;70583.66;5000262;28;20452;-73
2022/02/20 08:15:52;;;;;;;6.27;3.77;;;;;;;-145.14;100.00;70583.66;4994150;28;20451;-73
2022/02/20 08:18:19;;;;;;;3.80;3.40;;;;;;;-145.14;100.00;70583.66;4998894;28;20463;-73
2022/02/20 08:20:45;;;;;;;6.80;4.10;;;;;;;-145.14;100.00;70583.66;4996988;28;20480;-73
2022/02/20 08:23:11;;;;;;;;;;;;;;;-145.14;100.00;70583.66;4997956;28;20568;-73
2022/02/20 08:25:38;;;;;;;6.60;3.77;;;;;;;-145.14;100.00;70583.66;4988404;28;20474;-73
2022/02/20 08:28:04;;;;;;;5.97;3.30;;;;;;;-145.14;100.00;70583.66;4996282;28;20447;-73
2022/02/20 08:30:29;;;;;;;7.23;3.70;;;;;;;-145.14;100.00;70583.66;5001214;28;20443;-72
2022/02/20 08:32:55;;;;;;;6.07;4.10;;;;;;;-145.14;100.00;70583.66;5000528;28;20507;-73
2022/02/20 08:35:20;;;;;;;7.20;4.20;;;;;;;-145.14;100.00;70583.66;4993750;28;20189;-74
2022/02/20 08:37:46;;;;;;;6.07;4.80;;;;;;;-145.14;100.00;70583.66;4998227;28;20177;-73
2022/02/20 08:40:17;;;;;;;6.20;4.50;;;;;;;-145.14;100.00;70583.66;4996269;28;20196;-70
2022/02/20 08:42:43;;;;;;;5.67;4.23;;;;;;;-145.14;100.00;70583.66;4993630;28;20810;-74
2022/02/20 08:45:09;;;;;;;8.10;4.67;;;;;;;-145.14;100.00;70583.66;4998406;28;20499;-74
2022/02/20 08:47:35;;;;;;;4.87;4.33;;;;;;;-145.14;100.00;70583.66;4990377;28;20502;-74
2022/02/20 08:50:01;;;;;;;6.90;5.33;;;;;;;-145.14;100.00;70583.66;4997297;28;20514;-74
2022/02/20 08:52:28;;;;;;;7.90;5.70;;;;;;;-145.14;100.00;70583.66;4999400;28;20871;-76
2022/02/20 08:54:53;;;;;;;10.73;6.63;;;;;;;-145.14;100.00;70583.66;5000443;28;20185;-77
2022/02/20 08:57:19;;;;;;;13.17;5.80;;;;;;;-145.14;100.00;70583.66;5001596;28;20466;-76
2022/02/20 08:59:44;;;;;;;9.97;5.70;;;;;;;-145.14;100.00;70583.66;4990861;28;20732;-77
2022/02/20 09:02:11;;;;;;;7.47;6.10;;;;;;;-145.14;100.00;70583.66;4999880;28;20189;-77
2022/02/20 09:04:37;;;;;;;10.80;6.90;;;;;;;-145.14;100.00;70583.66;4989669;28;20569;-77
2022/02/20 09:07:04;;;;;;;12.53;6.40;;;;;;;-145.14;100.00;70583.66;4987267;28;20629;-77
2022/02/20 09:09:29;;;;;;;6.40;5.57;;;;;;;-145.14;100.00;70583.66;4991343;28;20330;-74
2022/02/20 09:11:56;;;;;;;14.60;5.90;;;;;;;-145.14;100.00;70583.66;4984021;28;21118;-76
2022/02/20 09:14:21;;;;;;;9.53;5.83;;;;;;;-145.14;100.00;70583.66;4997651;28;20192;-75
2022/02/20 09:16:47;;;;;;;8.90;5.07;;;;;;;-145.14;100.00;70583.66;4994173;28;20904;-74
2022/02/20 09:19:12;;;;;;;10.00;5.90;;;;;;;-145.14;100.00;70583.66;5003275;28;20189;-75
2022/02/20 09:21:38;;;;;;;15.53;6.37;;;;;;;-145.14;100.00;70583.66;4994894;28;20216;-74
2022/02/20 09:24:04;;;;;;;10.03;5.67;;;;;;;-145.14;100.00;70583.66;4992503;28;20232;-72
2022/02/20 09:26:29;;;;;;;8.97;5.60;;;;;;;-145.14;100.00;70583.66;4992086;28;20224;-73
2022/02/20 09:28:55;;;;;;;9.90;6.00;;;;;;;-145.14;100.00;70583.66;4996771;28;20500;-75
2022/02/20 09:31:20;;;;;;;7.57;5.70;;;;;;;-145.14;100.00;70583.66;4984336;28;20197;-74
2022/02/20 09:33:46;;;;;;;5.63;4.93;;;;;;;-145.14;100.00;70583.66;4994914;28;20819;-74
2022/02/20 09:36:11;;;;;;;16.50;6.20;;;;;;;-145.14;100.00;70583.66;4986975;28;20201;-74
2022/02/20 09:38:37;;;;;;;8.13;6.20;;;;;;;-145.14;100.00;70583.66;4988722;28;20757;-73
2022/02/20 09:41:08;;;;;;;10.70;6.23;;;;;;;-145.14;100.00;70583.66;4998545;28;20725;-74
2022/02/20 09:43:34;;;;;;;7.93;6.10;;;;;;;-145.14;100.00;70583.66;4986476;28;20246;-76
2022/02/20 09:46:01;;;;;;;6.63;5.93;;;;;;;-145.14;100.00;70583.66;4999084;28;20564;-76
2022/02/20 09:48:27;;;;;;;8.23;5.97;;;;;;;-145.14;100.00;70583.66;4997094;28;20502;-77
2022/02/20 09:50:52;;;;;;;8.70;6.83;;;;;;;-145.14;100.00;70583.66;4997263;28;20466;-77
2022/02/20 09:53:17;;;;;;;11.43;7.50;;;;;;;-145.14;100.00;70583.66;5000133;28;20920;-77
2022/02/20 09:55:49;;;;;;;8.03;7.17;;;;;;;-145.14;100.00;70583.66;4999848;28;20208;-76
2022/02/20 09:58:16;;;;;;;9.10;6.80;;;;;;;-145.14;100.00;70583.66;5002041;28;20616;-77
2022/02/20 10:01:08;;;;;;;8.10;5.93;;;;;;;-145.14;100.00;70583.66;4994494;28;20455;-77
2022/02/20 10:03:35;;;;;;;5.37;3.70;;;;;;;-145.14;100.00;70583.66;4995783;28;20483;-75
2022/02/20 10:06:02;;;;;;;5.50;3.90;;;;;;;-145.14;100.00;70583.66;4992305;28;20505;-75
2022/02/20 10:08:40;;;;;;;5.20;4.50;;;;;;;-145.14;100.00;70583.66;4994770;28;20448;-75
2022/02/20 10:11:20;;;;;;;8.33;4.93;;;;;;;-145.14;100.00;70583.66;4996769;28;20444;-72
2022/02/20 10:13:47;;;;;;;5.70;4.10;;;;;;;-145.14;100.00;70583.66;4997281;28;20450;-73
2022/02/20 10:16:17;;;;;;;5.60;4.30;;;;;;;-145.14;100.00;70583.66;4993115;28;20610;-73
2022/02/20 10:18:46;;;;;;;8.40;4.73;;;;;;;-145.14;100.00;70583.66;4995714;28;20928;-72
2022/02/20 10:21:20;;;;;;;11.63;4.47;;;;;;;-145.14;100.00;70583.66;5000206;28;20546;-72
2022/02/20 10:23:46;;;;;;;7.63;4.40;;;;;;;-145.14;100.00;70583.66;4992638;28;20436;-72
2022/02/20 10:26:19;;;;;;;6.83;4.47;;;;;;;-145.14;100.00;70583.66;4985838;28;21717;-72
2022/02/20 10:29:02;;;;;;;8.30;5.23;;;;;;;-145.14;100.00;70583.66;4995929;28;20197;-73
2022/02/20 10:31:42;;;;;;;6.80;3.93;;;;;;;-145.14;100.00;70583.66;4995187;28;20435;-74
2022/02/20 10:34:11;;;;;;;6.77;4.03;;;;;;;-145.14;100.00;70583.66;4996795;28;20489;-76
2022/02/20 10:36:48;;;;;;;13.10;4.83;;;;;;;-145.14;100.00;70583.66;4995942;28;20578;-74
2022/02/20 10:39:44;;;;;;;9.30;3.83;;;;;;;-145.14;100.00;70583.66;4988523;28;20448;-75
2022/02/20 10:42:16;;;;;;;17.30;5.37;;;;;;;-145.14;100.00;70583.66;4970787;28;20455;-74
2022/02/20 10:44:52;;;;;;;12.60;5.10;;;;;;;-145.14;100.00;70583.66;4992286;28;20487;-74
2022/02/20 10:47:20;;;;;;;14.20;3.97;;;;;;;-145.14;100.00;70583.66;4993175;28;22471;-74
2022/02/20 10:49:45;;;;;;;13.77;3.20;;;;;;;-145.14;100.00;70583.66;4989962;28;20443;-73
2022/02/20 10:52:32;;;;;;;24.50;4.60;;;;;;;-145.14;100.00;70583.66;4984011;28;20444;-73
2022/02/20 10:55:11;;;;;;;17.17;4.37;;;;;;;-145.14;100.00;70583.66;4981492;28;20227;-73
2022/02/20 10:57:40;;;;;;;19.03;4.17;;;;;;;-145.14;100.00;70583.66;4986574;28;20982;-73
2022/02/20 11:00:14;;;;;;;22.13;4.73;;;;;;;-145.14;100.00;70583.66;4987011;28;20435;-73
2022/02/20 11:02:41;;;;;;;30.93;4.90;;;;;;;-145.14;100.00;70583.66;4988875;28;20531;-73
2022/02/20 11:05:07;;;;;;;29.20;6.00;;;;;;;-145.14;100.00;70583.66;4980446;28;20463;-73
2022/02/20 11:07:37;;;;;;;33.97;7.00;;;;;;;-145.14;100.00;70583.66;4983785;28;20493;-74